sensor_id;sensor_type;location;lat;lon;timestamp;temperature;humidity
4757;DHT22;2392;52.578;13.426;2024-03-02T00:00:14;8.40;99.90
4757;DHT22;2392;52.578;13.426;2024-03-02T00:02:43;8.30;99.90
4757;DHT22;2392;52.578;13.426;2024-03-02T00:05:11;8.30;99.90
4757;DHT22;2392;52.578;13.426;2024-03-02T00:07:41;8.30;99.90
4757;DHT22;2392;52.578;13.426;2024-03-02T00:10:09;8.30;99.90
4757;DHT22;2392;52.578;13.426;2024-03-02T00:12:37;8.40;99.90
4757;DHT22;2392;52.578;13.426;2024-03-02T00:15:05;8.30;99.90
4757;DHT22;2392;52.578;13.426;2024-03-02T00:17:33;8.40;99.90
4757;DHT22;2392;52.578;13.426;2024-03-02T00:20:02;8.40;99.90
4757;DHT22;2392;52.578;13.426;2024-03-02T00:22:30;8.40;99.90
4757;DHT22;2392;52.578;13.426;2024-03-02T00:24:57;8.40;99.90
4757;DHT22;2392;52.578;13.426;2024-03-02T00:27:24;8.40;99.90
4757;DHT22;2392;52.578;13.426;2024-03-02T00:29:51;8.40;99.90
4757;DHT22;2392;52.578;13.426;2024-03-02T00:32:18;8.40;99.90
4757;DHT22;2392;52.578;13.426;2024-03-02T00:34:44;8.40;99.90
4757;DHT22;2392;52.578;13.426;2024-03-02T00:37:12;8.50;99.90
4757;DHT22;2392;52.578;13.426;2024-03-02T00:39:40;8.50;99.90
4757;DHT22;2392;52.578;13.426;2024-03-02T00:42:07;8.50;99.90
4757;DHT22;2392;52.578;13.426;2024-03-02T00:44:34;8.60;99.90
4757;DHT22;2392;52.578;13.426;2024-03-02T00:47:01;8.50;99.90
4757;DHT22;2392;52.578;13.426;2024-03-02T00:49:28;8.50;99.90
4757;DHT22;2392;52.578;13.426;2024-03-02T00:51:55;8.50;99.90
4757;DHT22;2392;52.578;13.426;2024-03-02T00:54:25;8.50;99.90
4757;DHT22;2392;52.578;13.426;2024-03-02T00:56:54;8.50;99.90
4757;DHT22;2392;52.578;13.426;2024-03-02T00:59:21;8.50;99.90
4757;DHT22;2392;52.578;13.426;2024-03-02T01:01:48;8.50;99.90
4757;DHT22;2392;52.578;13.426;2024-03-02T01:04:15;8.50;99.90
4757;DHT22;2392;52.578;13.426;2024-03-02T01:06:42;8.50;99.90
4757;DHT22;2392;52.578;13.426;2024-03-02T01:09:09;8.50;99.90
4757;DHT22;2392;52.578;13.426;2024-03-02T01:11:38;8.50;99.90
4757;DHT22;2392;52.578;13.426;2024-03-02T01:14:05;8.50;99.90
4757;DHT22;2392;52.578;13.426;2024-03-02T01:16:31;8.50;99.90
4757;DHT22;2392;52.578;13.426;2024-03-02T01:18:58;8.50;99.90
4757;DHT22;2392;52.578;13.426;2024-03-02T01:21:24;8.50;99.90
4757;DHT22;2392;52.578;13.426;2024-03-02T01:23:51;8.40;99.90
4757;DHT22;2392;52.578;13.426;2024-03-02T01:26:18;8.50;99.90
4757;DHT22;2392;52.578;13.426;2024-03-02T01:28:46;8.50;99.90
4757;DHT22;2392;52.578;13.426;2024-03-02T01:31:12;8.50;99.90
4757;DHT22;2392;52.578;13.426;2024-03-02T01:33:39;8.50;99.90
4757;DHT22;2392;52.578;13.426;2024-03-02T01:36:06;8.50;99.90
4757;DHT22;2392;52.578;13.426;2024-03-02T01:38:33;8.50;99.90
4757;DHT22;2392;52.578;13.426;2024-03-02T01:41:00;8.50;99.90
4757;DHT22;2392;52.578;13.426;2024-03-02T01:43:27;8.60;99.90
4757;DHT22;2392;52.578;13.426;2024-03-02T01:45:55;8.60;99.90
4757;DHT22;2392;52.578;13.426;2024-03-02T01:48:23;8.60;99.90
4757;DHT22;2392;52.578;13.426;2024-03-02T01:50:49;8.60;99.90
4757;DHT22;2392;52.578;13.426;2024-03-02T01:53:16;8.60;99.90
4757;DHT22;2392;52.578;13.426;2024-03-02T01:55:43;8.60;99.90
4757;DHT22;2392;52.578;13.426;2024-03-02T01:58:10;8.60;99.90
4757;DHT22;2392;52.578;13.426;2024-03-02T02:00:36;8.60;99.90
4757;DHT22;2392;52.578;13.426;2024-03-02T02:03:05;8.70;99.90
4757;DHT22;2392;52.578;13.426;2024-03-02T02:05:32;8.70;99.90
4757;DHT22;2392;52.578;13.426;2024-03-02T02:07:58;8.70;99.90
4757;DHT22;2392;52.578;13.426;2024-03-02T02:10:25;8.70;99.90
4757;DHT22;2392;52.578;13.426;2024-03-02T02:12:52;8.70;99.90
4757;DHT22;2392;52.578;13.426;2024-03-02T02:15:25;8.70;99.90
4757;DHT22;2392;52.578;13.426;2024-03-02T02:17:52;8.70;99.90
4757;DHT22;2392;52.578;13.426;2024-03-02T02:20:20;8.70;99.90
4757;DHT22;2392;52.578;13.426;2024-03-02T02:22:58;8.60;99.90
4757;DHT22;2392;52.578;13.426;2024-03-02T02:25:25;8.60;99.90
4757;DHT22;2392;52.578;13.426;2024-03-02T02:27:52;8.70;99.90
4757;DHT22;2392;52.578;13.426;2024-03-02T02:30:19;8.70;99.90
4757;DHT22;2392;52.578;13.426;2024-03-02T02:32:46;8.70;99.90
4757;DHT22;2392;52.578;13.426;2024-03-02T02:35:13;8.70;99.90
4757;DHT22;2392;52.578;13.426;2024-03-02T02:37:40;8.70;99.90
4757;DHT22;2392;52.578;13.426;2024-03-02T02:40:09;8.70;99.90
4757;DHT22;2392;52.578;13.426;2024-03-02T02:42:36;8.70;99.90
4757;DHT22;2392;52.578;13.426;2024-03-02T02:45:03;8.70;99.90
4757;DHT22;2392;52.578;13.426;2024-03-02T02:47:30;8.70;99.90
4757;DHT22;2392;52.578;13.426;2024-03-02T02:49:59;8.70;99.90
4757;DHT22;2392;52.578;13.426;2024-03-02T02:52:25;8.70;99.90
4757;DHT22;2392;52.578;13.426;2024-03-02T02:54:52;8.70;99.90
4757;DHT22;2392;52.578;13.426;2024-03-02T02:57:20;8.70;99.90
4757;DHT22;2392;52.578;13.426;2024-03-02T02:59:47;8.70;99.90
4757;DHT22;2392;52.578;13.426;2024-03-02T03:02:13;8.70;99.90
4757;DHT22;2392;52.578;13.426;2024-03-02T03:04:40;8.70;99.90
4757;DHT22;2392;52.578;13.426;2024-03-02T03:07:07;8.70;99.90
4757;DHT22;2392;52.578;13.426;2024-03-02T03:09:33;8.60;99.90
4757;DHT22;2392;52.578;13.426;2024-03-02T03:12:04;8.60;99.90
4757;DHT22;2392;52.578;13.426;2024-03-02T03:14:32;8.60;99.90
4757;DHT22;2392;52.578;13.426;2024-03-02T03:16:59;8.70;99.90
4757;DHT22;2392;52.578;13.426;2024-03-02T03:19:26;8.60;99.90
4757;DHT22;2392;52.578;13.426;2024-03-02T03:21:53;8.60;99.90
4757;DHT22;2392;52.578;13.426;2024-03-02T03:24:19;8.60;99.90
4757;DHT22;2392;52.578;13.426;2024-03-02T03:26:46;8.70;99.90
4757;DHT22;2392;52.578;13.426;2024-03-02T03:29:13;8.70;99.90
4757;DHT22;2392;52.578;13.426;2024-03-02T03:31:40;8.70;99.90
4757;DHT22;2392;52.578;13.426;2024-03-02T03:34:07;8.70;99.90
4757;DHT22;2392;52.578;13.426;2024-03-02T03:36:34;8.80;99.90
4757;DHT22;2392;52.578;13.426;2024-03-02T03:39:00;8.80;99.90
4757;DHT22;2392;52.578;13.426;2024-03-02T03:41:28;8.80;99.90
4757;DHT22;2392;52.578;13.426;2024-03-02T03:43:55;8.80;99.90
4757;DHT22;2392;52.578;13.426;2024-03-02T03:46:22;8.80;99.90
4757;DHT22;2392;52.578;13.426;2024-03-02T03:48:49;8.90;99.90
4757;DHT22;2392;52.578;13.426;2024-03-02T03:51:16;8.90;99.90
4757;DHT22;2392;52.578;13.426;2024-03-02T03:53:43;8.90;99.90
4757;DHT22;2392;52.578;13.426;2024-03-02T03:56:09;9.00;99.90
4757;DHT22;2392;52.578;13.426;2024-03-02T03:58:36;9.00;99.90
4757;DHT22;2392;52.578;13.426;2024-03-02T04:01:03;9.10;99.90
4757;DHT22;2392;52.578;13.426;2024-03-02T04:03:29;9.10;99.90
4757;DHT22;2392;52.578;13.426;2024-03-02T04:05:58;9.10;99.90
4757;DHT22;2392;52.578;13.426;2024-03-02T04:08:24;9.20;99.90
4757;DHT22;2392;52.578;13.426;2024-03-02T04:10:51;9.20;99.90
4757;DHT22;2392;52.578;13.426;2024-03-02T04:13:18;9.20;99.90
4757;DHT22;2392;52.578;13.426;2024-03-02T04:15:44;9.30;99.90
4757;DHT22;2392;52.578;13.426;2024-03-02T04:18:11;9.30;99.90
4757;DHT22;2392;52.578;13.426;2024-03-02T04:20:38;9.30;99.90
4757;DHT22;2392;52.578;13.426;2024-03-02T04:23:06;9.30;99.90
4757;DHT22;2392;52.578;13.426;2024-03-02T04:25:33;9.40;99.90
4757;DHT22;2392;52.578;13.426;2024-03-02T04:28:00;9.40;99.90
4757;DHT22;2392;52.578;13.426;2024-03-02T04:30:26;9.40;99.90
4757;DHT22;2392;52.578;13.426;2024-03-02T04:32:53;9.40;99.90
4757;DHT22;2392;52.578;13.426;2024-03-02T04:35:20;9.40;99.90
4757;DHT22;2392;52.578;13.426;2024-03-02T04:37:46;9.40;99.90
4757;DHT22;2392;52.578;13.426;2024-03-02T04:40:14;9.50;99.90
4757;DHT22;2392;52.578;13.426;2024-03-02T04:42:41;9.50;99.90
4757;DHT22;2392;52.578;13.426;2024-03-02T04:45:08;9.50;99.90
4757;DHT22;2392;52.578;13.426;2024-03-02T04:47:35;9.50;99.90
4757;DHT22;2392;52.578;13.426;2024-03-02T04:50:02;9.50;99.90
4757;DHT22;2392;52.578;13.426;2024-03-02T04:52:29;9.50;99.90
4757;DHT22;2392;52.578;13.426;2024-03-02T04:54:55;9.50;99.90
4757;DHT22;2392;52.578;13.426;2024-03-02T04:57:56;9.50;99.90
4757;DHT22;2392;52.578;13.426;2024-03-02T05:00:23;9.50;99.90
4757;DHT22;2392;52.578;13.426;2024-03-02T05:02:49;9.50;99.90
4757;DHT22;2392;52.578;13.426;2024-03-02T05:05:16;9.50;99.90
4757;DHT22;2392;52.578;13.426;2024-03-02T05:07:43;9.60;99.90
4757;DHT22;2392;52.578;13.426;2024-03-02T05:10:09;9.50;99.90
4757;DHT22;2392;52.578;13.426;2024-03-02T05:12:37;9.50;99.90
4757;DHT22;2392;52.578;13.426;2024-03-02T05:15:23;9.50;99.90
4757;DHT22;2392;52.578;13.426;2024-03-02T05:17:50;9.50;99.90
4757;DHT22;2392;52.578;13.426;2024-03-02T05:20:17;9.60;99.90
4757;DHT22;2392;52.578;13.426;2024-03-02T05:22:43;9.50;99.90
4757;DHT22;2392;52.578;13.426;2024-03-02T05:25:10;9.60;99.90
4757;DHT22;2392;52.578;13.426;2024-03-02T05:27:37;9.60;99.90
4757;DHT22;2392;52.578;13.426;2024-03-02T05:30:05;9.60;99.90
4757;DHT22;2392;52.578;13.426;2024-03-02T05:32:34;9.60;99.90
4757;DHT22;2392;52.578;13.426;2024-03-02T05:35:00;9.60;99.90
4757;DHT22;2392;52.578;13.426;2024-03-02T05:37:28;9.60;99.90
4757;DHT22;2392;52.578;13.426;2024-03-02T05:39:55;9.60;99.90
4757;DHT22;2392;52.578;13.426;2024-03-02T05:42:22;9.60;99.90
4757;DHT22;2392;52.578;13.426;2024-03-02T05:44:48;9.60;99.90
4757;DHT22;2392;52.578;13.426;2024-03-02T05:47:15;9.60;99.90
4757;DHT22;2392;52.578;13.426;2024-03-02T05:49:43;9.50;99.90
4757;DHT22;2392;52.578;13.426;2024-03-02T05:52:10;9.50;99.90
4757;DHT22;2392;52.578;13.426;2024-03-02T05:54:37;9.50;99.90
4757;DHT22;2392;52.578;13.426;2024-03-02T05:57:04;9.40;99.90
4757;DHT22;2392;52.578;13.426;2024-03-02T05:59:51;9.40;99.90
4757;DHT22;2392;52.578;13.426;2024-03-02T06:02:19;9.40;99.90
4757;DHT22;2392;52.578;13.426;2024-03-02T06:04:47;9.40;99.90
4757;DHT22;2392;52.578;13.426;2024-03-02T06:07:13;9.40;99.90
4757;DHT22;2392;52.578;13.426;2024-03-02T06:09:41;9.40;99.90
4757;DHT22;2392;52.578;13.426;2024-03-02T06:12:07;9.40;99.90
4757;DHT22;2392;52.578;13.426;2024-03-02T06:14:34;9.40;99.90
4757;DHT22;2392;52.578;13.426;2024-03-02T06:17:01;9.40;99.90
4757;DHT22;2392;52.578;13.426;2024-03-02T06:19:28;9.40;99.90
4757;DHT22;2392;52.578;13.426;2024-03-02T06:21:56;9.40;99.90
4757;DHT22;2392;52.578;13.426;2024-03-02T06:24:23;9.40;99.90
4757;DHT22;2392;52.578;13.426;2024-03-02T06:26:49;9.30;99.90
4757;DHT22;2392;52.578;13.426;2024-03-02T06:29:16;9.30;99.90
4757;DHT22;2392;52.578;13.426;2024-03-02T06:31:42;9.40;99.90
4757;DHT22;2392;52.578;13.426;2024-03-02T06:34:09;9.30;99.90
4757;DHT22;2392;52.578;13.426;2024-03-02T06:36:36;9.40;99.90
4757;DHT22;2392;52.578;13.426;2024-03-02T06:39:04;9.30;99.90
4757;DHT22;2392;52.578;13.426;2024-03-02T06:41:30;9.30;99.90
4757;DHT22;2392;52.578;13.426;2024-03-02T06:43:57;9.40;99.90
4757;DHT22;2392;52.578;13.426;2024-03-02T06:46:25;9.40;99.90
4757;DHT22;2392;52.578;13.426;2024-03-02T06:48:52;9.40;99.90
4757;DHT22;2392;52.578;13.426;2024-03-02T06:51:19;9.40;99.90
4757;DHT22;2392;52.578;13.426;2024-03-02T06:53:45;9.40;99.90
4757;DHT22;2392;52.578;13.426;2024-03-02T06:56:13;9.40;99.90
4757;DHT22;2392;52.578;13.426;2024-03-02T06:58:40;9.40;99.90
4757;DHT22;2392;52.578;13.426;2024-03-02T07:01:08;9.40;99.90
4757;DHT22;2392;52.578;13.426;2024-03-02T07:03:35;9.40;99.90
4757;DHT22;2392;52.578;13.426;2024-03-02T07:06:02;9.50;99.90
4757;DHT22;2392;52.578;13.426;2024-03-02T07:08:28;9.50;99.90
4757;DHT22;2392;52.578;13.426;2024-03-02T07:10:55;9.60;99.90
4757;DHT22;2392;52.578;13.426;2024-03-02T07:13:23;9.60;99.90
4757;DHT22;2392;52.578;13.426;2024-03-02T07:15:50;9.60;99.90
4757;DHT22;2392;52.578;13.426;2024-03-02T07:18:41;9.60;99.90
4757;DHT22;2392;52.578;13.426;2024-03-02T07:21:10;9.70;99.90
4757;DHT22;2392;52.578;13.426;2024-03-02T07:23:37;9.70;99.90
4757;DHT22;2392;52.578;13.426;2024-03-02T07:26:03;9.80;99.90
4757;DHT22;2392;52.578;13.426;2024-03-02T07:28:33;9.80;99.90
4757;DHT22;2392;52.578;13.426;2024-03-02T07:31:00;9.90;99.90
4757;DHT22;2392;52.578;13.426;2024-03-02T07:33:27;9.90;99.90
4757;DHT22;2392;52.578;13.426;2024-03-02T07:35:54;9.90;99.90
4757;DHT22;2392;52.578;13.426;2024-03-02T07:38:20;10.00;99.90
4757;DHT22;2392;52.578;13.426;2024-03-02T07:40:47;10.00;99.90
4757;DHT22;2392;52.578;13.426;2024-03-02T07:43:16;10.10;99.90
4757;DHT22;2392;52.578;13.426;2024-03-02T07:45:44;10.10;99.90
4757;DHT22;2392;52.578;13.426;2024-03-02T07:48:11;10.20;99.90
4757;DHT22;2392;52.578;13.426;2024-03-02T07:50:37;10.20;99.90
4757;DHT22;2392;52.578;13.426;2024-03-02T07:53:04;10.20;99.90
4757;DHT22;2392;52.578;13.426;2024-03-02T07:55:33;10.20;99.90
4757;DHT22;2392;52.578;13.426;2024-03-02T07:58:00;10.20;99.90
4757;DHT22;2392;52.578;13.426;2024-03-02T08:00:27;10.20;99.90
4757;DHT22;2392;52.578;13.426;2024-03-02T08:02:55;10.20;99.90
4757;DHT22;2392;52.578;13.426;2024-03-02T08:05:22;10.20;99.90
4757;DHT22;2392;52.578;13.426;2024-03-02T08:07:49;10.20;99.90
4757;DHT22;2392;52.578;13.426;2024-03-02T08:10:18;10.20;99.90
4757;DHT22;2392;52.578;13.426;2024-03-02T08:12:45;10.30;99.90
4757;DHT22;2392;52.578;13.426;2024-03-02T08:15:11;10.30;99.90
4757;DHT22;2392;52.578;13.426;2024-03-02T08:17:38;10.30;99.90
4757;DHT22;2392;52.578;13.426;2024-03-02T08:20:11;10.30;99.90
4757;DHT22;2392;52.578;13.426;2024-03-02T08:22:38;10.30;99.90
4757;DHT22;2392;52.578;13.426;2024-03-02T08:25:07;10.30;99.90
4757;DHT22;2392;52.578;13.426;2024-03-02T08:27:34;10.30;99.90
4757;DHT22;2392;52.578;13.426;2024-03-02T08:30:00;10.30;99.90
4757;DHT22;2392;52.578;13.426;2024-03-02T08:32:29;10.30;99.90
4757;DHT22;2392;52.578;13.426;2024-03-02T08:34:55;10.40;99.90
4757;DHT22;2392;52.578;13.426;2024-03-02T08:37:23;10.40;99.90
4757;DHT22;2392;52.578;13.426;2024-03-02T08:39:50;10.40;99.90
4757;DHT22;2392;52.578;13.426;2024-03-02T08:42:17;10.40;99.90
4757;DHT22;2392;52.578;13.426;2024-03-02T08:44:44;10.40;99.90
4757;DHT22;2392;52.578;13.426;2024-03-02T08:47:10;10.40;99.90
4757;DHT22;2392;52.578;13.426;2024-03-02T08:49:37;10.40;99.90
4757;DHT22;2392;52.578;13.426;2024-03-02T08:52:04;10.40;99.90
4757;DHT22;2392;52.578;13.426;2024-03-02T08:54:32;10.40;99.90
4757;DHT22;2392;52.578;13.426;2024-03-02T08:57:01;10.40;99.90
4757;DHT22;2392;52.578;13.426;2024-03-02T08:59:27;10.40;99.90
4757;DHT22;2392;52.578;13.426;2024-03-02T09:01:54;10.40;99.90
4757;DHT22;2392;52.578;13.426;2024-03-02T09:04:21;10.40;99.90
4757;DHT22;2392;52.578;13.426;2024-03-02T09:06:47;10.40;99.90
4757;DHT22;2392;52.578;13.426;2024-03-02T09:09:14;10.50;99.90
4757;DHT22;2392;52.578;13.426;2024-03-02T09:11:42;10.40;99.90
4757;DHT22;2392;52.578;13.426;2024-03-02T09:14:09;10.40;99.90
4757;DHT22;2392;52.578;13.426;2024-03-02T09:16:35;10.30;99.90
4757;DHT22;2392;52.578;13.426;2024-03-02T09:19:02;10.30;99.90
4757;DHT22;2392;52.578;13.426;2024-03-02T09:21:29;10.30;99.90
4757;DHT22;2392;52.578;13.426;2024-03-02T09:23:56;10.30;99.90
4757;DHT22;2392;52.578;13.426;2024-03-02T09:26:23;10.40;99.90
4757;DHT22;2392;52.578;13.426;2024-03-02T09:28:51;10.40;99.90
4757;DHT22;2392;52.578;13.426;2024-03-02T09:31:18;10.40;99.90
4757;DHT22;2392;52.578;13.426;2024-03-02T09:33:45;10.40;99.90
4757;DHT22;2392;52.578;13.426;2024-03-02T09:36:17;10.50;99.90
4757;DHT22;2392;52.578;13.426;2024-03-02T09:38:45;10.60;99.90
4757;DHT22;2392;52.578;13.426;2024-03-02T09:41:12;10.60;99.90
4757;DHT22;2392;52.578;13.426;2024-03-02T09:43:39;10.70;99.90
4757;DHT22;2392;52.578;13.426;2024-03-02T09:46:09;10.80;99.90
4757;DHT22;2392;52.578;13.426;2024-03-02T09:48:35;10.80;99.90
4757;DHT22;2392;52.578;13.426;2024-03-02T09:51:04;10.90;99.90
4757;DHT22;2392;52.578;13.426;2024-03-02T09:53:31;11.00;99.90
4757;DHT22;2392;52.578;13.426;2024-03-02T09:55:59;11.10;99.90
4757;DHT22;2392;52.578;13.426;2024-03-02T09:58:25;11.30;99.90
4757;DHT22;2392;52.578;13.426;2024-03-02T10:00:52;11.50;99.90
4757;DHT22;2392;52.578;13.426;2024-03-02T10:03:20;11.80;99.90
4757;DHT22;2392;52.578;13.426;2024-03-02T10:05:49;11.80;99.90
4757;DHT22;2392;52.578;13.426;2024-03-02T10:08:15;12.00;99.90
4757;DHT22;2392;52.578;13.426;2024-03-02T10:10:42;12.10;99.90
4757;DHT22;2392;52.578;13.426;2024-03-02T10:13:10;12.20;99.90
4757;DHT22;2392;52.578;13.426;2024-03-02T10:15:38;12.50;99.90
4757;DHT22;2392;52.578;13.426;2024-03-02T10:18:08;12.60;99.90
4757;DHT22;2392;52.578;13.426;2024-03-02T10:20:37;12.60;99.90
4757;DHT22;2392;52.578;13.426;2024-03-02T10:23:11;12.60;99.90
4757;DHT22;2392;52.578;13.426;2024-03-02T10:25:38;12.80;99.90
4757;DHT22;2392;52.578;13.426;2024-03-02T10:28:05;12.90;99.90
4757;DHT22;2392;52.578;13.426;2024-03-02T10:30:32;13.20;99.90
4757;DHT22;2392;52.578;13.426;2024-03-02T10:33:00;13.40;99.90
4757;DHT22;2392;52.578;13.426;2024-03-02T10:35:27;13.50;99.90
4757;DHT22;2392;52.578;13.426;2024-03-02T10:37:55;13.70;99.90
4757;DHT22;2392;52.578;13.426;2024-03-02T10:40:22;13.70;99.90
4757;DHT22;2392;52.578;13.426;2024-03-02T10:42:50;13.60;99.90
4757;DHT22;2392;52.578;13.426;2024-03-02T10:45:19;13.60;99.90
4757;DHT22;2392;52.578;13.426;2024-03-02T10:47:47;13.60;99.90
4757;DHT22;2392;52.578;13.426;2024-03-02T10:50:13;13.60;99.90
4757;DHT22;2392;52.578;13.426;2024-03-02T10:52:40;13.60;99.90
4757;DHT22;2392;52.578;13.426;2024-03-02T10:55:09;13.60;99.90
4757;DHT22;2392;52.578;13.426;2024-03-02T10:57:41;13.70;99.90
4757;DHT22;2392;52.578;13.426;2024-03-02T11:00:12;13.70;99.90
4757;DHT22;2392;52.578;13.426;2024-03-02T11:02:43;13.70;99.90
4757;DHT22;2392;52.578;13.426;2024-03-02T11:05:13;13.80;99.90
4757;DHT22;2392;52.578;13.426;2024-03-02T11:07:45;13.80;99.90
4757;DHT22;2392;52.578;13.426;2024-03-02T11:10:15;13.90;99.90
4757;DHT22;2392;52.578;13.426;2024-03-02T11:12:51;14.00;99.90
4757;DHT22;2392;52.578;13.426;2024-03-02T11:15:20;14.10;99.90
4757;DHT22;2392;52.578;13.426;2024-03-02T11:17:47;14.20;99.90
4757;DHT22;2392;52.578;13.426;2024-03-02T11:20:15;14.20;99.90
4757;DHT22;2392;52.578;13.426;2024-03-02T11:22:44;14.20;99.90
4757;DHT22;2392;52.578;13.426;2024-03-02T11:25:24;14.30;99.90
4757;DHT22;2392;52.578;13.426;2024-03-02T11:28:02;14.20;99.90
4757;DHT22;2392;52.578;13.426;2024-03-02T11:30:51;14.30;99.90
4757;DHT22;2392;52.578;13.426;2024-03-02T11:33:25;14.20;99.90
4757;DHT22;2392;52.578;13.426;2024-03-02T11:35:56;14.20;99.90
4757;DHT22;2392;52.578;13.426;2024-03-02T11:38:31;14.40;99.90
4757;DHT22;2392;52.578;13.426;2024-03-02T11:41:01;14.40;99.90
4757;DHT22;2392;52.578;13.426;2024-03-02T11:43:29;14.40;99.90
4757;DHT22;2392;52.578;13.426;2024-03-02T11:45:59;14.50;99.90
4757;DHT22;2392;52.578;13.426;2024-03-02T11:48:26;14.50;99.90
4757;DHT22;2392;52.578;13.426;2024-03-02T11:50:53;14.50;99.90
4757;DHT22;2392;52.578;13.426;2024-03-02T11:53:21;14.60;99.90
4757;DHT22;2392;52.578;13.426;2024-03-02T11:55:47;14.70;99.90
4757;DHT22;2392;52.578;13.426;2024-03-02T11:58:16;14.60;99.90
4757;DHT22;2392;52.578;13.426;2024-03-02T12:00:45;14.60;99.90
4757;DHT22;2392;52.578;13.426;2024-03-02T12:03:13;14.70;99.90
4757;DHT22;2392;52.578;13.426;2024-03-02T12:05:41;14.70;99.90
4757;DHT22;2392;52.578;13.426;2024-03-02T12:08:08;14.60;99.90
4757;DHT22;2392;52.578;13.426;2024-03-02T12:10:36;14.60;99.90
4757;DHT22;2392;52.578;13.426;2024-03-02T12:13:04;14.70;99.90
4757;DHT22;2392;52.578;13.426;2024-03-02T12:15:34;14.90;99.90
4757;DHT22;2392;52.578;13.426;2024-03-02T12:18:02;15.00;99.90
4757;DHT22;2392;52.578;13.426;2024-03-02T12:20:30;15.20;99.90
4757;DHT22;2392;52.578;13.426;2024-03-02T12:23:00;15.40;99.90
4757;DHT22;2392;52.578;13.426;2024-03-02T12:25:27;15.60;99.90
4757;DHT22;2392;52.578;13.426;2024-03-02T12:27:55;15.80;99.90
4757;DHT22;2392;52.578;13.426;2024-03-02T12:30:22;15.80;99.90
4757;DHT22;2392;52.578;13.426;2024-03-02T12:32:50;16.00;99.90
4757;DHT22;2392;52.578;13.426;2024-03-02T12:35:18;16.10;99.90
4757;DHT22;2392;52.578;13.426;2024-03-02T12:37:46;16.20;99.90
4757;DHT22;2392;52.578;13.426;2024-03-02T12:40:13;16.40;99.90
4757;DHT22;2392;52.578;13.426;2024-03-02T12:42:41;16.60;99.90
4757;DHT22;2392;52.578;13.426;2024-03-02T12:45:08;16.80;99.90
4757;DHT22;2392;52.578;13.426;2024-03-02T12:47:35;16.90;99.90
4757;DHT22;2392;52.578;13.426;2024-03-02T12:50:04;17.00;99.90
4757;DHT22;2392;52.578;13.426;2024-03-02T12:52:32;17.00;99.90
4757;DHT22;2392;52.578;13.426;2024-03-02T12:54:59;17.00;99.90
4757;DHT22;2392;52.578;13.426;2024-03-02T12:57:29;17.10;99.90
4757;DHT22;2392;52.578;13.426;2024-03-02T12:59:58;17.60;99.90
4757;DHT22;2392;52.578;13.426;2024-03-02T13:02:28;18.10;99.90
4757;DHT22;2392;52.578;13.426;2024-03-02T13:04:55;18.70;99.90
4757;DHT22;2392;52.578;13.426;2024-03-02T13:07:24;19.20;99.90
4757;DHT22;2392;52.578;13.426;2024-03-02T13:09:50;19.60;99.90
4757;DHT22;2392;52.578;13.426;2024-03-02T13:12:17;19.80;99.90
4757;DHT22;2392;52.578;13.426;2024-03-02T13:14:44;19.70;99.90
4757;DHT22;2392;52.578;13.426;2024-03-02T13:17:10;19.60;99.90
4757;DHT22;2392;52.578;13.426;2024-03-02T13:19:50;19.60;99.90
4757;DHT22;2392;52.578;13.426;2024-03-02T13:22:17;19.50;99.90
4757;DHT22;2392;52.578;13.426;2024-03-02T13:24:45;19.60;99.90
4757;DHT22;2392;52.578;13.426;2024-03-02T13:27:11;19.90;99.90
4757;DHT22;2392;52.578;13.426;2024-03-02T13:29:38;20.30;99.90
4757;DHT22;2392;52.578;13.426;2024-03-02T13:32:05;20.50;99.90
4757;DHT22;2392;52.578;13.426;2024-03-02T13:34:32;20.70;99.90
4757;DHT22;2392;52.578;13.426;2024-03-02T13:36:58;20.90;99.90
4757;DHT22;2392;52.578;13.426;2024-03-02T13:39:26;20.80;99.90
4757;DHT22;2392;52.578;13.426;2024-03-02T13:41:57;20.60;99.90
4757;DHT22;2392;52.578;13.426;2024-03-02T13:44:29;20.10;99.90
4757;DHT22;2392;52.578;13.426;2024-03-02T13:46:56;19.70;99.90
4757;DHT22;2392;52.578;13.426;2024-03-02T13:49:23;19.20;99.90
4757;DHT22;2392;52.578;13.426;2024-03-02T13:51:54;18.60;99.90
4757;DHT22;2392;52.578;13.426;2024-03-02T13:54:22;18.20;99.90
4757;DHT22;2392;52.578;13.426;2024-03-02T13:56:48;17.90;99.90
4757;DHT22;2392;52.578;13.426;2024-03-02T13:59:16;17.70;99.90
4757;DHT22;2392;52.578;13.426;2024-03-02T14:01:44;17.60;99.90
4757;DHT22;2392;52.578;13.426;2024-03-02T14:04:11;17.50;99.90
4757;DHT22;2392;52.578;13.426;2024-03-02T14:06:38;17.50;99.90
4757;DHT22;2392;52.578;13.426;2024-03-02T14:09:04;17.50;99.90
4757;DHT22;2392;52.578;13.426;2024-03-02T14:11:31;17.60;99.90
4757;DHT22;2392;52.578;13.426;2024-03-02T14:13:58;17.60;99.90
4757;DHT22;2392;52.578;13.426;2024-03-02T14:16:26;17.40;99.90
4757;DHT22;2392;52.578;13.426;2024-03-02T14:18:52;17.40;99.90
4757;DHT22;2392;52.578;13.426;2024-03-02T14:21:19;17.30;99.90
4757;DHT22;2392;52.578;13.426;2024-03-02T14:23:45;17.20;99.90
4757;DHT22;2392;52.578;13.426;2024-03-02T14:26:12;17.10;99.90
4757;DHT22;2392;52.578;13.426;2024-03-02T14:28:39;17.10;99.90
4757;DHT22;2392;52.578;13.426;2024-03-02T14:31:06;17.10;99.90
4757;DHT22;2392;52.578;13.426;2024-03-02T14:33:33;17.00;99.90
4757;DHT22;2392;52.578;13.426;2024-03-02T14:36:01;16.80;99.90
4757;DHT22;2392;52.578;13.426;2024-03-02T14:38:28;16.80;99.90
4757;DHT22;2392;52.578;13.426;2024-03-02T14:40:54;16.60;99.90
4757;DHT22;2392;52.578;13.426;2024-03-02T14:43:22;16.50;99.90
4757;DHT22;2392;52.578;13.426;2024-03-02T14:45:48;16.40;99.90
4757;DHT22;2392;52.578;13.426;2024-03-02T14:48:15;16.40;99.90
4757;DHT22;2392;52.578;13.426;2024-03-02T14:50:43;16.30;99.90
4757;DHT22;2392;52.578;13.426;2024-03-02T14:53:10;16.10;99.90
4757;DHT22;2392;52.578;13.426;2024-03-02T14:55:37;16.10;99.90
4757;DHT22;2392;52.578;13.426;2024-03-02T14:58:04;16.00;99.90
4757;DHT22;2392;52.578;13.426;2024-03-02T15:00:30;15.90;99.90
4757;DHT22;2392;52.578;13.426;2024-03-02T15:02:57;15.80;99.90
4757;DHT22;2392;52.578;13.426;2024-03-02T15:05:24;15.70;99.90
4757;DHT22;2392;52.578;13.426;2024-03-02T15:07:53;15.50;99.90
4757;DHT22;2392;52.578;13.426;2024-03-02T15:10:20;15.40;99.90
4757;DHT22;2392;52.578;13.426;2024-03-02T15:12:47;15.30;99.90
4757;DHT22;2392;52.578;13.426;2024-03-02T15:15:13;15.20;99.90
4757;DHT22;2392;52.578;13.426;2024-03-02T15:17:40;15.10;99.90
4757;DHT22;2392;52.578;13.426;2024-03-02T15:20:08;15.00;99.90
4757;DHT22;2392;52.578;13.426;2024-03-02T15:22:35;14.90;99.90
4757;DHT22;2392;52.578;13.426;2024-03-02T15:25:03;14.80;99.90
4757;DHT22;2392;52.578;13.426;2024-03-02T15:27:30;14.80;99.90
4757;DHT22;2392;52.578;13.426;2024-03-02T15:29:57;14.70;99.90
4757;DHT22;2392;52.578;13.426;2024-03-02T15:32:23;14.60;99.90
4757;DHT22;2392;52.578;13.426;2024-03-02T15:34:52;14.60;99.90
4757;DHT22;2392;52.578;13.426;2024-03-02T15:37:18;14.70;99.90
4757;DHT22;2392;52.578;13.426;2024-03-02T15:39:45;14.70;99.90
4757;DHT22;2392;52.578;13.426;2024-03-02T15:42:13;14.70;99.90
4757;DHT22;2392;52.578;13.426;2024-03-02T15:44:40;14.70;99.90
4757;DHT22;2392;52.578;13.426;2024-03-02T15:47:07;14.70;99.90
4757;DHT22;2392;52.578;13.426;2024-03-02T15:49:34;14.70;99.90
4757;DHT22;2392;52.578;13.426;2024-03-02T15:52:01;14.80;99.90
4757;DHT22;2392;52.578;13.426;2024-03-02T15:54:28;14.70;99.90